sensor_id;sensor_type;location;lat;lon;timestamp;temperature;humidity
73277;DHT22;61501;43.316;5.372;2024-03-06T00:02:04;9.40;99.90
73277;DHT22;61501;43.316;5.372;2024-03-06T00:04:29;9.40;99.90
73277;DHT22;61501;43.316;5.372;2024-03-06T00:06:55;9.30;99.90
73277;DHT22;61501;43.316;5.372;2024-03-06T00:09:21;9.30;99.90
73277;DHT22;61501;43.316;5.372;2024-03-06T00:11:47;9.30;99.90
73277;DHT22;61501;43.316;5.372;2024-03-06T00:14:12;9.30;99.90
73277;DHT22;61501;43.316;5.372;2024-03-06T00:16:38;9.30;99.90
73277;DHT22;61501;43.316;5.372;2024-03-06T00:19:04;9.30;99.90
73277;DHT22;61501;43.316;5.372;2024-03-06T00:21:30;9.30;99.90
73277;DHT22;61501;43.316;5.372;2024-03-06T00:23:55;9.30;99.90
73277;DHT22;61501;43.316;5.372;2024-03-06T00:26:21;9.30;99.90
73277;DHT22;61501;43.316;5.372;2024-03-06T00:28:50;9.30;99.90
73277;DHT22;61501;43.316;5.372;2024-03-06T00:31:15;9.30;99.90
73277;DHT22;61501;43.316;5.372;2024-03-06T00:33:41;9.20;99.90
73277;DHT22;61501;43.316;5.372;2024-03-06T00:36:07;9.20;99.90
73277;DHT22;61501;43.316;5.372;2024-03-06T00:38:33;9.20;99.90
73277;DHT22;61501;43.316;5.372;2024-03-06T00:40:58;9.20;99.90
73277;DHT22;61501;43.316;5.372;2024-03-06T00:43:24;9.20;99.90
73277;DHT22;61501;43.316;5.372;2024-03-06T00:45:50;9.10;99.90
73277;DHT22;61501;43.316;5.372;2024-03-06T00:48:15;9.10;99.90
73277;DHT22;61501;43.316;5.372;2024-03-06T00:50:41;9.10;99.90
73277;DHT22;61501;43.316;5.372;2024-03-06T00:53:07;9.10;99.90
73277;DHT22;61501;43.316;5.372;2024-03-06T00:55:32;9.10;99.90
73277;DHT22;61501;43.316;5.372;2024-03-06T00:57:58;9.10;99.90
73277;DHT22;61501;43.316;5.372;2024-03-06T01:00:27;9.10;99.90
73277;DHT22;61501;43.316;5.372;2024-03-06T01:02:53;9.10;99.90
73277;DHT22;61501;43.316;5.372;2024-03-06T01:05:18;9.00;99.90
73277;DHT22;61501;43.316;5.372;2024-03-06T01:07:44;9.00;99.90
73277;DHT22;61501;43.316;5.372;2024-03-06T01:10:10;9.00;99.90
73277;DHT22;61501;43.316;5.372;2024-03-06T01:12:36;9.00;99.90
73277;DHT22;61501;43.316;5.372;2024-03-06T01:15:01;8.90;99.90
73277;DHT22;61501;43.316;5.372;2024-03-06T01:17:28;8.90;99.90
73277;DHT22;61501;43.316;5.372;2024-03-06T01:19:53;8.90;99.90
73277;DHT22;61501;43.316;5.372;2024-03-06T01:22:19;8.80;99.90
73277;DHT22;61501;43.316;5.372;2024-03-06T01:24:45;8.80;99.90
73277;DHT22;61501;43.316;5.372;2024-03-06T01:27:15;8.80;99.90
73277;DHT22;61501;43.316;5.372;2024-03-06T01:29:41;8.70;99.90
73277;DHT22;61501;43.316;5.372;2024-03-06T01:32:07;8.70;99.90
73277;DHT22;61501;43.316;5.372;2024-03-06T01:34:33;8.70;99.90
73277;DHT22;61501;43.316;5.372;2024-03-06T01:36:58;8.60;99.90
73277;DHT22;61501;43.316;5.372;2024-03-06T01:39:24;8.50;99.90
73277;DHT22;61501;43.316;5.372;2024-03-06T01:41:51;8.50;99.90
73277;DHT22;61501;43.316;5.372;2024-03-06T01:44:18;8.40;99.90
73277;DHT22;61501;43.316;5.372;2024-03-06T01:46:46;8.40;99.90
73277;DHT22;61501;43.316;5.372;2024-03-06T01:49:13;8.40;99.90
73277;DHT22;61501;43.316;5.372;2024-03-06T01:51:48;8.40;99.90
73277;DHT22;61501;43.316;5.372;2024-03-06T01:54:15;8.30;99.90
73277;DHT22;61501;43.316;5.372;2024-03-06T01:56:45;8.20;99.90
73277;DHT22;61501;43.316;5.372;2024-03-06T01:59:15;8.20;99.90
73277;DHT22;61501;43.316;5.372;2024-03-06T02:01:42;8.30;99.90
73277;DHT22;61501;43.316;5.372;2024-03-06T02:04:09;8.20;99.90
73277;DHT22;61501;43.316;5.372;2024-03-06T02:06:41;8.20;99.90
73277;DHT22;61501;43.316;5.372;2024-03-06T02:09:07;8.30;99.90
73277;DHT22;61501;43.316;5.372;2024-03-06T02:11:33;8.30;99.90
73277;DHT22;61501;43.316;5.372;2024-03-06T02:14:01;8.30;99.90
73277;DHT22;61501;43.316;5.372;2024-03-06T02:16:26;8.30;99.90
73277;DHT22;61501;43.316;5.372;2024-03-06T02:18:53;8.30;99.90
73277;DHT22;61501;43.316;5.372;2024-03-06T02:21:20;8.30;99.90
73277;DHT22;61501;43.316;5.372;2024-03-06T02:23:46;8.30;99.90
73277;DHT22;61501;43.316;5.372;2024-03-06T02:26:12;8.30;99.90
73277;DHT22;61501;43.316;5.372;2024-03-06T02:28:37;8.20;99.90
73277;DHT22;61501;43.316;5.372;2024-03-06T02:31:03;8.20;99.90
73277;DHT22;61501;43.316;5.372;2024-03-06T02:33:30;8.20;99.90
73277;DHT22;61501;43.316;5.372;2024-03-06T02:35:56;8.20;99.90
73277;DHT22;61501;43.316;5.372;2024-03-06T02:38:21;8.20;99.90
73277;DHT22;61501;43.316;5.372;2024-03-06T02:40:47;8.20;99.90
73277;DHT22;61501;43.316;5.372;2024-03-06T02:43:13;8.10;99.90
73277;DHT22;61501;43.316;5.372;2024-03-06T02:45:39;8.10;99.90
73277;DHT22;61501;43.316;5.372;2024-03-06T02:48:04;8.10;99.90
73277;DHT22;61501;43.316;5.372;2024-03-06T02:50:33;8.10;99.90
73277;DHT22;61501;43.316;5.372;2024-03-06T02:52:59;8.00;99.90
73277;DHT22;61501;43.316;5.372;2024-03-06T02:55:24;8.10;99.90
73277;DHT22;61501;43.316;5.372;2024-03-06T02:57:50;8.00;99.90
73277;DHT22;61501;43.316;5.372;2024-03-06T03:00:16;8.00;99.90
73277;DHT22;61501;43.316;5.372;2024-03-06T03:02:42;8.00;99.90
73277;DHT22;61501;43.316;5.372;2024-03-06T03:05:08;7.90;99.90
73277;DHT22;61501;43.316;5.372;2024-03-06T03:07:34;7.90;99.90
73277;DHT22;61501;43.316;5.372;2024-03-06T03:09:59;7.90;99.90
73277;DHT22;61501;43.316;5.372;2024-03-06T03:12:25;7.90;99.90
73277;DHT22;61501;43.316;5.372;2024-03-06T03:14:50;7.80;99.90
73277;DHT22;61501;43.316;5.372;2024-03-06T03:17:18;7.80;99.90
73277;DHT22;61501;43.316;5.372;2024-03-06T03:19:45;7.80;99.90
73277;DHT22;61501;43.316;5.372;2024-03-06T03:22:10;7.80;99.90
73277;DHT22;61501;43.316;5.372;2024-03-06T03:24:36;7.70;99.90
73277;DHT22;61501;43.316;5.372;2024-03-06T03:27:04;7.80;99.90
73277;DHT22;61501;43.316;5.372;2024-03-06T03:29:30;7.80;99.90
73277;DHT22;61501;43.316;5.372;2024-03-06T03:31:55;7.70;99.90
73277;DHT22;61501;43.316;5.372;2024-03-06T03:34:22;7.80;99.90
73277;DHT22;61501;43.316;5.372;2024-03-06T03:36:48;7.70;99.90
73277;DHT22;61501;43.316;5.372;2024-03-06T03:39:14;7.70;99.90
73277;DHT22;61501;43.316;5.372;2024-03-06T03:41:43;7.80;99.90
73277;DHT22;61501;43.316;5.372;2024-03-06T03:44:10;7.70;99.90
73277;DHT22;61501;43.316;5.372;2024-03-06T03:46:36;7.70;99.90
73277;DHT22;61501;43.316;5.372;2024-03-06T03:49:01;7.70;99.90
73277;DHT22;61501;43.316;5.372;2024-03-06T03:51:27;7.60;99.90
73277;DHT22;61501;43.316;5.372;2024-03-06T03:53:53;7.70;99.90
73277;DHT22;61501;43.316;5.372;2024-03-06T03:56:18;7.70;99.90
73277;DHT22;61501;43.316;5.372;2024-03-06T03:58:44;7.60;99.90
73277;DHT22;61501;43.316;5.372;2024-03-06T04:01:13;7.60;99.90
73277;DHT22;61501;43.316;5.372;2024-03-06T04:03:38;7.60;99.90
73277;DHT22;61501;43.316;5.372;2024-03-06T04:06:04;7.60;99.90
73277;DHT22;61501;43.316;5.372;2024-03-06T04:08:30;7.60;99.90
73277;DHT22;61501;43.316;5.372;2024-03-06T04:10:55;7.60;99.90
73277;DHT22;61501;43.316;5.372;2024-03-06T04:13:21;7.60;99.90
73277;DHT22;61501;43.316;5.372;2024-03-06T04:15:46;7.50;99.90
73277;DHT22;61501;43.316;5.372;2024-03-06T04:18:12;7.60;99.90
73277;DHT22;61501;43.316;5.372;2024-03-06T04:20:38;7.60;99.90
73277;DHT22;61501;43.316;5.372;2024-03-06T04:23:04;7.60;99.90
73277;DHT22;61501;43.316;5.372;2024-03-06T04:25:29;7.60;99.90
73277;DHT22;61501;43.316;5.372;2024-03-06T04:27:55;7.60;99.90
73277;DHT22;61501;43.316;5.372;2024-03-06T04:30:21;7.60;99.90
73277;DHT22;61501;43.316;5.372;2024-03-06T04:32:46;7.60;99.90
73277;DHT22;61501;43.316;5.372;2024-03-06T04:35:12;7.70;99.90
73277;DHT22;61501;43.316;5.372;2024-03-06T04:37:38;7.70;99.90
73277;DHT22;61501;43.316;5.372;2024-03-06T04:40:04;7.70;99.90
73277;DHT22;61501;43.316;5.372;2024-03-06T04:42:36;7.70;99.90
73277;DHT22;61501;43.316;5.372;2024-03-06T04:45:14;7.70;99.90
73277;DHT22;61501;43.316;5.372;2024-03-06T04:47:40;7.60;99.90
73277;DHT22;61501;43.316;5.372;2024-03-06T04:50:10;7.70;99.90
73277;DHT22;61501;43.316;5.372;2024-03-06T04:52:37;7.70;99.90
73277;DHT22;61501;43.316;5.372;2024-03-06T04:55:03;7.60;99.90
73277;DHT22;61501;43.316;5.372;2024-03-06T04:57:29;7.70;99.90
73277;DHT22;61501;43.316;5.372;2024-03-06T04:59:54;7.70;99.90
73277;DHT22;61501;43.316;5.372;2024-03-06T05:02:20;7.70;99.90
73277;DHT22;61501;43.316;5.372;2024-03-06T05:04:45;7.70;99.90
73277;DHT22;61501;43.316;5.372;2024-03-06T05:07:12;7.70;99.90
73277;DHT22;61501;43.316;5.372;2024-03-06T05:09:38;7.70;99.90
73277;DHT22;61501;43.316;5.372;2024-03-06T05:12:07;7.70;99.90
73277;DHT22;61501;43.316;5.372;2024-03-06T05:14:32;7.70;99.90
73277;DHT22;61501;43.316;5.372;2024-03-06T05:16:59;7.70;99.90
73277;DHT22;61501;43.316;5.372;2024-03-06T05:19:24;7.60;99.90
73277;DHT22;61501;43.316;5.372;2024-03-06T05:22:00;7.60;99.90
73277;DHT22;61501;43.316;5.372;2024-03-06T05:24:25;7.60;99.90
73277;DHT22;61501;43.316;5.372;2024-03-06T05:26:51;7.70;99.90
73277;DHT22;61501;43.316;5.372;2024-03-06T05:29:16;7.70;99.90
73277;DHT22;61501;43.316;5.372;2024-03-06T05:31:42;7.70;99.90
73277;DHT22;61501;43.316;5.372;2024-03-06T05:34:08;7.60;99.90
73277;DHT22;61501;43.316;5.372;2024-03-06T05:36:33;7.70;99.90
73277;DHT22;61501;43.316;5.372;2024-03-06T05:38:59;7.70;99.90
73277;DHT22;61501;43.316;5.372;2024-03-06T05:41:25;7.70;99.90
73277;DHT22;61501;43.316;5.372;2024-03-06T05:43:50;7.70;99.90
73277;DHT22;61501;43.316;5.372;2024-03-06T05:46:16;7.60;99.90
73277;DHT22;61501;43.316;5.372;2024-03-06T05:48:42;7.60;99.90
73277;DHT22;61501;43.316;5.372;2024-03-06T05:51:07;7.60;99.90
73277;DHT22;61501;43.316;5.372;2024-03-06T05:53:37;7.60;99.90
73277;DHT22;61501;43.316;5.372;2024-03-06T05:56:05;7.60;99.90
73277;DHT22;61501;43.316;5.372;2024-03-06T05:58:31;7.60;99.90
73277;DHT22;61501;43.316;5.372;2024-03-06T06:00:57;7.70;99.90
73277;DHT22;61501;43.316;5.372;2024-03-06T06:03:22;7.90;99.90
73277;DHT22;61501;43.316;5.372;2024-03-06T06:05:48;7.80;99.90
73277;DHT22;61501;43.316;5.372;2024-03-06T06:08:13;7.80;99.90
73277;DHT22;61501;43.316;5.372;2024-03-06T06:10:39;7.90;99.90
73277;DHT22;61501;43.316;5.372;2024-03-06T06:13:05;8.00;99.90
73277;DHT22;61501;43.316;5.372;2024-03-06T06:15:30;7.90;99.90
73277;DHT22;61501;43.316;5.372;2024-03-06T06:17:56;7.90;99.90
73277;DHT22;61501;43.316;5.372;2024-03-06T06:20:22;7.90;99.90
73277;DHT22;61501;43.316;5.372;2024-03-06T06:22:47;7.90;99.90
73277;DHT22;61501;43.316;5.372;2024-03-06T06:25:13;8.10;99.90
73277;DHT22;61501;43.316;5.372;2024-03-06T06:27:43;8.10;99.90
73277;DHT22;61501;43.316;5.372;2024-03-06T06:30:08;8.10;99.90
73277;DHT22;61501;43.316;5.372;2024-03-06T06:32:37;8.00;99.90
73277;DHT22;61501;43.316;5.372;2024-03-06T06:35:04;7.80;99.90
73277;DHT22;61501;43.316;5.372;2024-03-06T06:37:30;7.80;99.90
73277;DHT22;61501;43.316;5.372;2024-03-06T06:39:55;7.90;99.90
73277;DHT22;61501;43.316;5.372;2024-03-06T06:42:21;7.90;99.90
73277;DHT22;61501;43.316;5.372;2024-03-06T06:44:46;7.90;99.90
73277;DHT22;61501;43.316;5.372;2024-03-06T06:47:12;8.00;99.90
73277;DHT22;61501;43.316;5.372;2024-03-06T06:49:37;8.00;99.90
73277;DHT22;61501;43.316;5.372;2024-03-06T06:52:03;8.10;99.90
73277;DHT22;61501;43.316;5.372;2024-03-06T06:54:29;8.10;99.90
73277;DHT22;61501;43.316;5.372;2024-03-06T06:56:54;8.10;99.90
73277;DHT22;61501;43.316;5.372;2024-03-06T06:59:20;8.10;99.90
73277;DHT22;61501;43.316;5.372;2024-03-06T07:01:47;8.10;99.90
73277;DHT22;61501;43.316;5.372;2024-03-06T07:04:13;8.20;99.90
73277;DHT22;61501;43.316;5.372;2024-03-06T07:06:42;8.10;99.90
73277;DHT22;61501;43.316;5.372;2024-03-06T07:09:07;8.20;99.90
73277;DHT22;61501;43.316;5.372;2024-03-06T07:11:34;8.20;99.90
73277;DHT22;61501;43.316;5.372;2024-03-06T07:14:02;8.30;99.90
73277;DHT22;61501;43.316;5.372;2024-03-06T07:16:28;8.20;99.90
73277;DHT22;61501;43.316;5.372;2024-03-06T07:18:53;8.20;99.90
73277;DHT22;61501;43.316;5.372;2024-03-06T07:21:19;8.20;99.90
73277;DHT22;61501;43.316;5.372;2024-03-06T07:23:44;8.30;99.90
73277;DHT22;61501;43.316;5.372;2024-03-06T07:26:10;8.30;99.90
73277;DHT22;61501;43.316;5.372;2024-03-06T07:28:36;8.30;99.90
73277;DHT22;61501;43.316;5.372;2024-03-06T07:31:03;8.30;99.90
73277;DHT22;61501;43.316;5.372;2024-03-06T07:33:33;8.40;99.90
73277;DHT22;61501;43.316;5.372;2024-03-06T07:35:59;8.50;99.90
73277;DHT22;61501;43.316;5.372;2024-03-06T07:38:25;8.50;99.90
73277;DHT22;61501;43.316;5.372;2024-03-06T07:40:50;8.50;99.90
73277;DHT22;61501;43.316;5.372;2024-03-06T07:43:16;8.50;99.90
73277;DHT22;61501;43.316;5.372;2024-03-06T07:45:42;8.60;99.90
73277;DHT22;61501;43.316;5.372;2024-03-06T07:48:07;8.70;99.90
73277;DHT22;61501;43.316;5.372;2024-03-06T07:50:35;8.70;99.90
73277;DHT22;61501;43.316;5.372;2024-03-06T07:53:00;8.70;99.90
73277;DHT22;61501;43.316;5.372;2024-03-06T07:55:27;8.70;99.90
73277;DHT22;61501;43.316;5.372;2024-03-06T07:57:53;8.80;99.90
73277;DHT22;61501;43.316;5.372;2024-03-06T08:00:19;8.80;99.90
73277;DHT22;61501;43.316;5.372;2024-03-06T08:02:45;8.90;99.90
73277;DHT22;61501;43.316;5.372;2024-03-06T08:05:16;9.00;99.90
73277;DHT22;61501;43.316;5.372;2024-03-06T08:07:42;9.00;99.90
73277;DHT22;61501;43.316;5.372;2024-03-06T08:10:09;8.90;99.90
73277;DHT22;61501;43.316;5.372;2024-03-06T08:12:35;9.00;99.00
73277;DHT22;61501;43.316;5.372;2024-03-06T08:15:00;9.00;98.40
73277;DHT22;61501;43.316;5.372;2024-03-06T08:17:28;9.10;98.90
73277;DHT22;61501;43.316;5.372;2024-03-06T08:19:53;9.10;98.20
73277;DHT22;61501;43.316;5.372;2024-03-06T08:22:20;9.20;98.10
73277;DHT22;61501;43.316;5.372;2024-03-06T08:24:46;9.10;97.70
73277;DHT22;61501;43.316;5.372;2024-03-06T08:27:11;9.20;97.70
73277;DHT22;61501;43.316;5.372;2024-03-06T08:29:37;9.20;97.80
73277;DHT22;61501;43.316;5.372;2024-03-06T08:32:03;9.20;97.70
73277;DHT22;61501;43.316;5.372;2024-03-06T08:34:29;9.20;98.30
73277;DHT22;61501;43.316;5.372;2024-03-06T08:36:54;9.20;97.70
73277;DHT22;61501;43.316;5.372;2024-03-06T08:39:20;9.30;98.20
73277;DHT22;61501;43.316;5.372;2024-03-06T08:41:46;9.20;97.80
73277;DHT22;61501;43.316;5.372;2024-03-06T08:44:11;9.30;98.30
73277;DHT22;61501;43.316;5.372;2024-03-06T08:46:37;9.30;98.50
73277;DHT22;61501;43.316;5.372;2024-03-06T08:49:02;9.30;98.40
73277;DHT22;61501;43.316;5.372;2024-03-06T08:51:28;9.30;98.50
73277;DHT22;61501;43.316;5.372;2024-03-06T08:53:54;9.40;97.30
73277;DHT22;61501;43.316;5.372;2024-03-06T08:56:19;9.40;97.90
73277;DHT22;61501;43.316;5.372;2024-03-06T08:58:45;9.40;98.10
73277;DHT22;61501;43.316;5.372;2024-03-06T09:01:10;9.50;97.30
73277;DHT22;61501;43.316;5.372;2024-03-06T09:03:36;9.60;97.20
73277;DHT22;61501;43.316;5.372;2024-03-06T09:06:01;9.60;96.90
73277;DHT22;61501;43.316;5.372;2024-03-06T09:08:28;9.60;96.70
73277;DHT22;61501;43.316;5.372;2024-03-06T09:10:54;9.60;96.20
73277;DHT22;61501;43.316;5.372;2024-03-06T09:13:19;9.60;95.60
73277;DHT22;61501;43.316;5.372;2024-03-06T09:15:45;9.80;96.30
73277;DHT22;61501;43.316;5.372;2024-03-06T09:18:11;9.70;95.20
73277;DHT22;61501;43.316;5.372;2024-03-06T09:20:36;9.70;95.80
73277;DHT22;61501;43.316;5.372;2024-03-06T09:23:02;9.70;95.10
73277;DHT22;61501;43.316;5.372;2024-03-06T09:25:28;9.80;95.10
73277;DHT22;61501;43.316;5.372;2024-03-06T09:27:54;9.80;95.50
73277;DHT22;61501;43.316;5.372;2024-03-06T09:30:19;9.90;95.50
73277;DHT22;61501;43.316;5.372;2024-03-06T09:32:45;9.90;95.20
73277;DHT22;61501;43.316;5.372;2024-03-06T09:35:11;9.90;95.40
73277;DHT22;61501;43.316;5.372;2024-03-06T09:37:37;9.90;96.30
73277;DHT22;61501;43.316;5.372;2024-03-06T09:40:03;10.00;96.00
73277;DHT22;61501;43.316;5.372;2024-03-06T09:42:28;10.10;95.90
73277;DHT22;61501;43.316;5.372;2024-03-06T09:44:55;10.10;96.10
73277;DHT22;61501;43.316;5.372;2024-03-06T09:47:22;10.00;95.70
73277;DHT22;61501;43.316;5.372;2024-03-06T09:49:52;10.10;96.20
73277;DHT22;61501;43.316;5.372;2024-03-06T09:52:22;10.00;96.40
73277;DHT22;61501;43.316;5.372;2024-03-06T09:54:50;10.10;96.20
73277;DHT22;61501;43.316;5.372;2024-03-06T09:57:17;10.20;96.40
73277;DHT22;61501;43.316;5.372;2024-03-06T09:59:42;10.30;95.80
73277;DHT22;61501;43.316;5.372;2024-03-06T10:02:34;10.30;96.40
73277;DHT22;61501;43.316;5.372;2024-03-06T10:05:03;10.30;94.70
73277;DHT22;61501;43.316;5.372;2024-03-06T10:07:28;10.30;94.80
73277;DHT22;61501;43.316;5.372;2024-03-06T10:09:55;10.30;95.80
73277;DHT22;61501;43.316;5.372;2024-03-06T10:12:21;10.30;96.10
73277;DHT22;61501;43.316;5.372;2024-03-06T10:14:53;10.40;95.80
73277;DHT22;61501;43.316;5.372;2024-03-06T10:17:20;10.40;96.00
73277;DHT22;61501;43.316;5.372;2024-03-06T10:19:49;10.50;96.20
73277;DHT22;61501;43.316;5.372;2024-03-06T10:22:21;10.60;96.00
73277;DHT22;61501;43.316;5.372;2024-03-06T10:24:49;10.70;95.50
73277;DHT22;61501;43.316;5.372;2024-03-06T10:27:16;10.70;95.60
73277;DHT22;61501;43.316;5.372;2024-03-06T10:29:44;10.90;95.60
73277;DHT22;61501;43.316;5.372;2024-03-06T10:32:17;11.00;94.70
73277;DHT22;61501;43.316;5.372;2024-03-06T10:34:46;11.00;93.90
73277;DHT22;61501;43.316;5.372;2024-03-06T10:37:12;11.00;93.00
73277;DHT22;61501;43.316;5.372;2024-03-06T10:39:42;10.90;94.30
73277;DHT22;61501;43.316;5.372;2024-03-06T10:42:13;11.00;92.80
73277;DHT22;61501;43.316;5.372;2024-03-06T10:44:44;11.10;92.80
73277;DHT22;61501;43.316;5.372;2024-03-06T10:47:13;11.20;91.50
73277;DHT22;61501;43.316;5.372;2024-03-06T10:49:40;11.20;91.60
73277;DHT22;61501;43.316;5.372;2024-03-06T10:52:09;11.20;90.70
73277;DHT22;61501;43.316;5.372;2024-03-06T10:54:35;11.20;91.60
73277;DHT22;61501;43.316;5.372;2024-03-06T10:57:04;11.30;92.00
73277;DHT22;61501;43.316;5.372;2024-03-06T10:59:30;11.40;91.00
73277;DHT22;61501;43.316;5.372;2024-03-06T11:01:56;11.40;91.80
73277;DHT22;61501;43.316;5.372;2024-03-06T11:04:26;11.40;90.00
73277;DHT22;61501;43.316;5.372;2024-03-06T11:06:56;11.30;89.00
73277;DHT22;61501;43.316;5.372;2024-03-06T11:09:22;11.50;89.70
73277;DHT22;61501;43.316;5.372;2024-03-06T11:11:50;11.40;88.10
73277;DHT22;61501;43.316;5.372;2024-03-06T11:14:17;11.30;88.80
73277;DHT22;61501;43.316;5.372;2024-03-06T11:17:03;11.40;88.20
73277;DHT22;61501;43.316;5.372;2024-03-06T11:19:32;11.50;88.70
73277;DHT22;61501;43.316;5.372;2024-03-06T11:21:58;11.60;87.60
73277;DHT22;61501;43.316;5.372;2024-03-06T11:24:34;11.70;88.00
73277;DHT22;61501;43.316;5.372;2024-03-06T11:27:01;11.80;86.60
73277;DHT22;61501;43.316;5.372;2024-03-06T11:29:29;11.80;87.60
73277;DHT22;61501;43.316;5.372;2024-03-06T11:32:00;11.80;86.70
73277;DHT22;61501;43.316;5.372;2024-03-06T11:34:26;11.80;86.40
73277;DHT22;61501;43.316;5.372;2024-03-06T11:36:59;11.90;85.30
73277;DHT22;61501;43.316;5.372;2024-03-06T11:39:33;11.80;85.50
73277;DHT22;61501;43.316;5.372;2024-03-06T11:42:03;11.90;83.90
73277;DHT22;61501;43.316;5.372;2024-03-06T11:44:32;11.90;81.80
73277;DHT22;61501;43.316;5.372;2024-03-06T11:47:05;11.90;83.60
73277;DHT22;61501;43.316;5.372;2024-03-06T11:49:34;11.90;82.20
73277;DHT22;61501;43.316;5.372;2024-03-06T11:52:04;11.90;80.90
73277;DHT22;61501;43.316;5.372;2024-03-06T11:54:36;12.00;81.10
73277;DHT22;61501;43.316;5.372;2024-03-06T11:57:03;12.00;81.60
73277;DHT22;61501;43.316;5.372;2024-03-06T11:59:33;12.20;82.40
73277;DHT22;61501;43.316;5.372;2024-03-06T12:02:02;12.30;79.20
73277;DHT22;61501;43.316;5.372;2024-03-06T12:04:30;12.60;79.10
73277;DHT22;61501;43.316;5.372;2024-03-06T12:07:00;13.20;75.40
73277;DHT22;61501;43.316;5.372;2024-03-06T12:09:30;14.00;72.90
73277;DHT22;61501;43.316;5.372;2024-03-06T12:11:56;14.80;68.40
73277;DHT22;61501;43.316;5.372;2024-03-06T12:14:25;14.70;69.40
73277;DHT22;61501;43.316;5.372;2024-03-06T12:16:55;14.70;67.10
73277;DHT22;61501;43.316;5.372;2024-03-06T12:19:21;15.00;64.00
73277;DHT22;61501;43.316;5.372;2024-03-06T12:21:48;15.60;61.60
73277;DHT22;61501;43.316;5.372;2024-03-06T12:24:16;15.70;62.70
73277;DHT22;61501;43.316;5.372;2024-03-06T12:26:44;15.50;61.20
73277;DHT22;61501;43.316;5.372;2024-03-06T12:29:11;15.20;60.40
73277;DHT22;61501;43.316;5.372;2024-03-06T12:31:42;15.40;59.30
73277;DHT22;61501;43.316;5.372;2024-03-06T12:34:08;15.30;57.80
73277;DHT22;61501;43.316;5.372;2024-03-06T12:36:34;15.50;59.10
73277;DHT22;61501;43.316;5.372;2024-03-06T12:39:02;15.20;57.30
73277;DHT22;61501;43.316;5.372;2024-03-06T12:41:29;15.10;58.30
73277;DHT22;61501;43.316;5.372;2024-03-06T12:43:55;15.10;59.50
73277;DHT22;61501;43.316;5.372;2024-03-06T12:46:22;15.00;59.40
73277;DHT22;61501;43.316;5.372;2024-03-06T12:48:48;15.60;56.60
73277;DHT22;61501;43.316;5.372;2024-03-06T12:51:14;15.50;56.70
73277;DHT22;61501;43.316;5.372;2024-03-06T12:53:43;15.50;56.60
73277;DHT22;61501;43.316;5.372;2024-03-06T12:56:09;15.60;55.40
73277;DHT22;61501;43.316;5.372;2024-03-06T12:58:35;15.20;55.70
73277;DHT22;61501;43.316;5.372;2024-03-06T13:01:01;15.20;54.40
73277;DHT22;61501;43.316;5.372;2024-03-06T13:03:27;15.50;53.60
73277;DHT22;61501;43.316;5.372;2024-03-06T13:05:53;15.90;54.00
73277;DHT22;61501;43.316;5.372;2024-03-06T13:08:19;16.30;52.70
73277;DHT22;61501;43.316;5.372;2024-03-06T13:10:44;16.10;51.30
73277;DHT22;61501;43.316;5.372;2024-03-06T13:13:10;15.70;52.80
73277;DHT22;61501;43.316;5.372;2024-03-06T13:15:36;15.80;53.10
73277;DHT22;61501;43.316;5.372;2024-03-06T13:18:03;15.70;52.30
73277;DHT22;61501;43.316;5.372;2024-03-06T13:20:33;16.10;52.60
73277;DHT22;61501;43.316;5.372;2024-03-06T13:22:59;15.80;50.60
73277;DHT22;61501;43.316;5.372;2024-03-06T13:25:25;15.90;52.10
73277;DHT22;61501;43.316;5.372;2024-03-06T13:27:54;15.70;53.70
73277;DHT22;61501;43.316;5.372;2024-03-06T13:30:20;15.60;55.90
73277;DHT22;61501;43.316;5.372;2024-03-06T13:32:46;15.90;56.90
73277;DHT22;61501;43.316;5.372;2024-03-06T13:35:12;15.70;54.30
73277;DHT22;61501;43.316;5.372;2024-03-06T13:37:40;16.10;55.10
73277;DHT22;61501;43.316;5.372;2024-03-06T13:40:07;15.80;57.10
73277;DHT22;61501;43.316;5.372;2024-03-06T13:42:37;16.30;53.00
73277;DHT22;61501;43.316;5.372;2024-03-06T13:45:04;16.40;51.80
73277;DHT22;61501;43.316;5.372;2024-03-06T13:47:30;16.60;53.60
73277;DHT22;61501;43.316;5.372;2024-03-06T13:49:56;16.50;52.50
73277;DHT22;61501;43.316;5.372;2024-03-06T13:52:22;16.70;47.60
73277;DHT22;61501;43.316;5.372;2024-03-06T13:54:49;16.40;47.30
73277;DHT22;61501;43.316;5.372;2024-03-06T13:57:15;16.40;47.90
73277;DHT22;61501;43.316;5.372;2024-03-06T13:59:41;16.40;51.80
73277;DHT22;61501;43.316;5.372;2024-03-06T14:02:07;16.80;53.10
73277;DHT22;61501;43.316;5.372;2024-03-06T14:04:33;16.30;53.80
73277;DHT22;61501;43.316;5.372;2024-03-06T14:06:59;16.50;53.80
73277;DHT22;61501;43.316;5.372;2024-03-06T14:09:25;16.50;52.80
73277;DHT22;61501;43.316;5.372;2024-03-06T14:11:54;16.50;51.30
73277;DHT22;61501;43.316;5.372;2024-03-06T14:14:20;16.30;52.10
73277;DHT22;61501;43.316;5.372;2024-03-06T14:16:46;16.70;51.00
73277;DHT22;61501;43.316;5.372;2024-03-06T14:19:12;17.00;52.20
73277;DHT22;61501;43.316;5.372;2024-03-06T14:21:38;16.50;55.30
73277;DHT22;61501;43.316;5.372;2024-03-06T14:24:04;16.40;55.30
73277;DHT22;61501;43.316;5.372;2024-03-06T14:26:32;16.20;54.80
73277;DHT22;61501;43.316;5.372;2024-03-06T14:28:59;16.00;53.30
73277;DHT22;61501;43.316;5.372;2024-03-06T14:31:24;15.90;54.50
73277;DHT22;61501;43.316;5.372;2024-03-06T14:33:50;15.80;55.60
73277;DHT22;61501;43.316;5.372;2024-03-06T14:36:16;15.90;55.40
73277;DHT22;61501;43.316;5.372;2024-03-06T14:38:42;15.90;54.60
73277;DHT22;61501;43.316;5.372;2024-03-06T14:41:10;15.70;55.30
73277;DHT22;61501;43.316;5.372;2024-03-06T14:43:35;16.00;55.30
73277;DHT22;61501;43.316;5.372;2024-03-06T14:46:04;16.40;52.50
73277;DHT22;61501;43.316;5.372;2024-03-06T14:48:31;16.20;52.00
73277;DHT22;61501;43.316;5.372;2024-03-06T14:50:57;16.60;51.50
73277;DHT22;61501;43.316;5.372;2024-03-06T14:53:23;16.90;50.80
73277;DHT22;61501;43.316;5.372;2024-03-06T14:55:48;16.80;48.00
73277;DHT22;61501;43.316;5.372;2024-03-06T14:58:14;16.80;49.20
73277;DHT22;61501;43.316;5.372;2024-03-06T15:00:40;16.90;48.60
73277;DHT22;61501;43.316;5.372;2024-03-06T15:03:05;16.90;48.40
73277;DHT22;61501;43.316;5.372;2024-03-06T15:05:33;17.20;48.80
73277;DHT22;61501;43.316;5.372;2024-03-06T15:07:58;16.70;49.50
73277;DHT22;61501;43.316;5.372;2024-03-06T15:10:24;16.40;47.80
73277;DHT22;61501;43.316;5.372;2024-03-06T15:12:50;16.50;47.60
73277;DHT22;61501;43.316;5.372;2024-03-06T15:15:15;16.90;45.80
73277;DHT22;61501;43.316;5.372;2024-03-06T15:17:41;16.80;46.90
73277;DHT22;61501;43.316;5.372;2024-03-06T15:20:07;16.80;47.50
73277;DHT22;61501;43.316;5.372;2024-03-06T15:22:37;17.10;47.50
73277;DHT22;61501;43.316;5.372;2024-03-06T15:25:08;16.80;47.80
73277;DHT22;61501;43.316;5.372;2024-03-06T15:27:35;16.60;47.80
73277;DHT22;61501;43.316;5.372;2024-03-06T15:30:02;16.60;48.70
73277;DHT22;61501;43.316;5.372;2024-03-06T15:32:30;16.40;50.70
73277;DHT22;61501;43.316;5.372;2024-03-06T15:34:56;16.90;50.30
73277;DHT22;61501;43.316;5.372;2024-03-06T15:37:23;17.10;49.20